sensor_id;sensor_type;location;lat;lon;timestamp;P1;durP1;ratioP1;P2;durP2;ratioP2
3463;SDS011;3551;41.578;24.706;2022-08-03T00:00:20;4.60;;;2.53;;
3463;SDS011;3551;41.578;24.706;2022-08-03T00:02:48;3.53;;;2.67;;
3463;SDS011;3551;41.578;24.706;2022-08-03T00:05:16;4.70;;;3.20;;
3463;SDS011;3551;41.578;24.706;2022-08-03T00:07:44;3.40;;;2.73;;
3463;SDS011;3551;41.578;24.706;2022-08-03T00:10:11;3.13;;;2.47;;
3463;SDS011;3551;41.578;24.706;2022-08-03T00:12:39;5.17;;;2.90;;
3463;SDS011;3551;41.578;24.706;2022-08-03T00:15:06;4.90;;;2.57;;
3463;SDS011;3551;41.578;24.706;2022-08-03T00:17:34;3.70;;;2.50;;
3463;SDS011;3551;41.578;24.706;2022-08-03T00:20:01;4.63;;;2.90;;
3463;SDS011;3551;41.578;24.706;2022-08-03T00:22:31;5.03;;;2.57;;
3463;SDS011;3551;41.578;24.706;2022-08-03T00:25:00;4.00;;;3.20;;
3463;SDS011;3551;41.578;24.706;2022-08-03T00:27:27;4.50;;;2.73;;
3463;SDS011;3551;41.578;24.706;2022-08-03T00:29:54;3.40;;;2.40;;
3463;SDS011;3551;41.578;24.706;2022-08-03T00:32:21;7.20;;;3.10;;
3463;SDS011;3551;41.578;24.706;2022-08-03T00:34:48;3.70;;;2.90;;
3463;SDS011;3551;41.578;24.706;2022-08-03T00:37:15;5.53;;;2.93;;
3463;SDS011;3551;41.578;24.706;2022-08-03T00:39:44;3.23;;;2.63;;
3463;SDS011;3551;41.578;24.706;2022-08-03T00:42:12;5.33;;;2.70;;
3463;SDS011;3551;41.578;24.706;2022-08-03T00:44:39;4.23;;;2.60;;
3463;SDS011;3551;41.578;24.706;2022-08-03T00:47:07;3.37;;;2.90;;
3463;SDS011;3551;41.578;24.706;2022-08-03T00:49:35;3.37;;;2.63;;
3463;SDS011;3551;41.578;24.706;2022-08-03T00:52:02;3.90;;;2.80;;
3463;SDS011;3551;41.578;24.706;2022-08-03T00:54:30;4.13;;;2.80;;
3463;SDS011;3551;41.578;24.706;2022-08-03T00:57:00;4.97;;;2.70;;
3463;SDS011;3551;41.578;24.706;2022-08-03T00:59:28;4.33;;;3.20;;
3463;SDS011;3551;41.578;24.706;2022-08-03T01:01:55;6.27;;;2.80;;
3463;SDS011;3551;41.578;24.706;2022-08-03T01:04:24;5.30;;;3.10;;
3463;SDS011;3551;41.578;24.706;2022-08-03T01:06:54;4.40;;;3.40;;
3463;SDS011;3551;41.578;24.706;2022-08-03T01:09:29;3.40;;;2.60;;
3463;SDS011;3551;41.578;24.706;2022-08-03T01:12:07;4.47;;;3.17;;
3463;SDS011;3551;41.578;24.706;2022-08-03T01:14:41;4.70;;;2.87;;
3463;SDS011;3551;41.578;24.706;2022-08-03T01:17:15;3.87;;;2.90;;
3463;SDS011;3551;41.578;24.706;2022-08-03T01:19:49;5.47;;;3.60;;
3463;SDS011;3551;41.578;24.706;2022-08-03T01:22:30;5.50;;;2.87;;
3463;SDS011;3551;41.578;24.706;2022-08-03T01:25:22;4.10;;;3.13;;
3463;SDS011;3551;41.578;24.706;2022-08-03T01:28:04;3.70;;;3.03;;
3463;SDS011;3551;41.578;24.706;2022-08-03T01:30:46;3.27;;;2.80;;
3463;SDS011;3551;41.578;24.706;2022-08-03T01:33:16;3.90;;;2.97;;
3463;SDS011;3551;41.578;24.706;2022-08-03T01:35:46;4.30;;;3.03;;
3463;SDS011;3551;41.578;24.706;2022-08-03T01:38:21;6.97;;;3.70;;
3463;SDS011;3551;41.578;24.706;2022-08-03T01:40:51;5.20;;;3.37;;
3463;SDS011;3551;41.578;24.706;2022-08-03T01:43:20;3.10;;;2.50;;
3463;SDS011;3551;41.578;24.706;2022-08-03T01:45:53;3.70;;;2.87;;
3463;SDS011;3551;41.578;24.706;2022-08-03T01:48:21;5.10;;;3.00;;
3463;SDS011;3551;41.578;24.706;2022-08-03T01:50:48;7.70;;;3.20;;
3463;SDS011;3551;41.578;24.706;2022-08-03T01:53:17;4.60;;;2.43;;
3463;SDS011;3551;41.578;24.706;2022-08-03T01:55:46;3.77;;;2.40;;
3463;SDS011;3551;41.578;24.706;2022-08-03T01:58:17;4.23;;;3.57;;
3463;SDS011;3551;41.578;24.706;2022-08-03T02:00:46;5.80;;;3.00;;
3463;SDS011;3551;41.578;24.706;2022-08-03T02:03:16;4.77;;;3.00;;
3463;SDS011;3551;41.578;24.706;2022-08-03T02:05:47;4.40;;;2.83;;
3463;SDS011;3551;41.578;24.706;2022-08-03T02:08:15;10.90;;;3.40;;
3463;SDS011;3551;41.578;24.706;2022-08-03T02:10:44;4.80;;;3.13;;
3463;SDS011;3551;41.578;24.706;2022-08-03T02:13:12;5.30;;;3.10;;
3463;SDS011;3551;41.578;24.706;2022-08-03T02:15:42;6.87;;;3.30;;
3463;SDS011;3551;41.578;24.706;2022-08-03T02:18:09;4.33;;;3.30;;
3463;SDS011;3551;41.578;24.706;2022-08-03T02:20:40;4.80;;;3.13;;
3463;SDS011;3551;41.578;24.706;2022-08-03T02:23:09;8.27;;;3.60;;
3463;SDS011;3551;41.578;24.706;2022-08-03T02:25:39;4.30;;;3.13;;
3463;SDS011;3551;41.578;24.706;2022-08-03T02:28:10;4.23;;;3.37;;
3463;SDS011;3551;41.578;24.706;2022-08-03T02:30:44;4.87;;;3.47;;
3463;SDS011;3551;41.578;24.706;2022-08-03T02:33:16;3.80;;;3.00;;
3463;SDS011;3551;41.578;24.706;2022-08-03T02:35:46;3.80;;;3.03;;
3463;SDS011;3551;41.578;24.706;2022-08-03T02:38:15;5.50;;;3.53;;
3463;SDS011;3551;41.578;24.706;2022-08-03T02:40:45;4.50;;;3.33;;
3463;SDS011;3551;41.578;24.706;2022-08-03T02:43:16;7.47;;;3.50;;
3463;SDS011;3551;41.578;24.706;2022-08-03T02:45:47;8.17;;;3.80;;
3463;SDS011;3551;41.578;24.706;2022-08-03T02:48:16;7.00;;;3.63;;
3463;SDS011;3551;41.578;24.706;2022-08-03T02:50:48;6.50;;;3.80;;
3463;SDS011;3551;41.578;24.706;2022-08-03T02:53:18;5.77;;;3.37;;
3463;SDS011;3551;41.578;24.706;2022-08-03T02:55:46;4.23;;;3.20;;
3463;SDS011;3551;41.578;24.706;2022-08-03T02:58:16;3.87;;;3.13;;
3463;SDS011;3551;41.578;24.706;2022-08-03T03:00:45;5.20;;;3.43;;
3463;SDS011;3551;41.578;24.706;2022-08-03T03:03:13;9.37;;;3.50;;
3463;SDS011;3551;41.578;24.706;2022-08-03T03:05:41;5.30;;;3.37;;
3463;SDS011;3551;41.578;24.706;2022-08-03T03:08:11;5.20;;;3.50;;
3463;SDS011;3551;41.578;24.706;2022-08-03T03:10:39;5.37;;;3.30;;
3463;SDS011;3551;41.578;24.706;2022-08-03T03:13:07;12.93;;;3.03;;
3463;SDS011;3551;41.578;24.706;2022-08-03T03:15:35;7.53;;;3.60;;
3463;SDS011;3551;41.578;24.706;2022-08-03T03:18:05;7.73;;;3.87;;
3463;SDS011;3551;41.578;24.706;2022-08-03T03:20:34;3.70;;;3.13;;
3463;SDS011;3551;41.578;24.706;2022-08-03T03:23:03;6.70;;;5.27;;
3463;SDS011;3551;41.578;24.706;2022-08-03T03:25:32;5.37;;;3.30;;
3463;SDS011;3551;41.578;24.706;2022-08-03T03:28:01;8.57;;;3.50;;
3463;SDS011;3551;41.578;24.706;2022-08-03T03:30:28;4.70;;;3.63;;
3463;SDS011;3551;41.578;24.706;2022-08-03T03:32:56;7.10;;;3.60;;
3463;SDS011;3551;41.578;24.706;2022-08-03T03:35:24;5.60;;;3.37;;
3463;SDS011;3551;41.578;24.706;2022-08-03T03:37:52;8.50;;;3.80;;
3463;SDS011;3551;41.578;24.706;2022-08-03T03:40:19;7.40;;;3.67;;
3463;SDS011;3551;41.578;24.706;2022-08-03T03:42:49;6.17;;;3.70;;
3463;SDS011;3551;41.578;24.706;2022-08-03T03:45:16;6.60;;;4.40;;
3463;SDS011;3551;41.578;24.706;2022-08-03T03:47:44;7.73;;;4.50;;
3463;SDS011;3551;41.578;24.706;2022-08-03T03:50:11;6.17;;;3.63;;
3463;SDS011;3551;41.578;24.706;2022-08-03T03:52:38;12.10;;;4.87;;
3463;SDS011;3551;41.578;24.706;2022-08-03T03:55:05;8.03;;;3.70;;
3463;SDS011;3551;41.578;24.706;2022-08-03T03:57:33;9.00;;;4.30;;
3463;SDS011;3551;41.578;24.706;2022-08-03T04:00:02;6.83;;;4.13;;
3463;SDS011;3551;41.578;24.706;2022-08-03T04:02:30;7.90;;;4.20;;
3463;SDS011;3551;41.578;24.706;2022-08-03T04:04:58;9.33;;;4.23;;
3463;SDS011;3551;41.578;24.706;2022-08-03T04:07:44;7.73;;;3.67;;
3463;SDS011;3551;41.578;24.706;2022-08-03T04:10:36;9.23;;;4.40;;
3463;SDS011;3551;41.578;24.706;2022-08-03T04:13:26;13.60;;;4.43;;
3463;SDS011;3551;41.578;24.706;2022-08-03T04:15:58;13.47;;;3.80;;
3463;SDS011;3551;41.578;24.706;2022-08-03T04:18:25;5.93;;;3.80;;
3463;SDS011;3551;41.578;24.706;2022-08-03T04:20:55;6.83;;;4.70;;
3463;SDS011;3551;41.578;24.706;2022-08-03T04:23:24;18.83;;;5.60;;
3463;SDS011;3551;41.578;24.706;2022-08-03T04:25:55;12.90;;;4.60;;
3463;SDS011;3551;41.578;24.706;2022-08-03T04:28:24;12.60;;;5.17;;
3463;SDS011;3551;41.578;24.706;2022-08-03T04:30:53;8.90;;;5.30;;
3463;SDS011;3551;41.578;24.706;2022-08-03T04:33:23;15.60;;;4.80;;
3463;SDS011;3551;41.578;24.706;2022-08-03T04:35:52;7.83;;;5.57;;
3463;SDS011;3551;41.578;24.706;2022-08-03T04:38:23;17.63;;;6.40;;
3463;SDS011;3551;41.578;24.706;2022-08-03T04:40:52;9.30;;;5.23;;
3463;SDS011;3551;41.578;24.706;2022-08-03T04:43:20;9.37;;;5.23;;
3463;SDS011;3551;41.578;24.706;2022-08-03T04:45:48;9.40;;;4.60;;
3463;SDS011;3551;41.578;24.706;2022-08-03T04:48:17;5.60;;;4.10;;
3463;SDS011;3551;41.578;24.706;2022-08-03T04:50:46;11.00;;;5.43;;
3463;SDS011;3551;41.578;24.706;2022-08-03T04:53:14;6.30;;;4.70;;
3463;SDS011;3551;41.578;24.706;2022-08-03T04:55:42;12.60;;;4.87;;
3463;SDS011;3551;41.578;24.706;2022-08-03T04:58:09;10.63;;;5.47;;
3463;SDS011;3551;41.578;24.706;2022-08-03T05:00:36;18.77;;;5.13;;
3463;SDS011;3551;41.578;24.706;2022-08-03T05:03:04;10.60;;;5.20;;
3463;SDS011;3551;41.578;24.706;2022-08-03T05:05:31;7.50;;;4.37;;
3463;SDS011;3551;41.578;24.706;2022-08-03T05:07:59;10.13;;;4.50;;
3463;SDS011;3551;41.578;24.706;2022-08-03T05:10:26;6.23;;;4.63;;
3463;SDS011;3551;41.578;24.706;2022-08-03T05:12:53;6.60;;;4.90;;
3463;SDS011;3551;41.578;24.706;2022-08-03T05:15:20;7.00;;;5.50;;
3463;SDS011;3551;41.578;24.706;2022-08-03T05:17:47;8.23;;;4.73;;
3463;SDS011;3551;41.578;24.706;2022-08-03T05:20:14;7.40;;;5.40;;
3463;SDS011;3551;41.578;24.706;2022-08-03T05:22:41;7.93;;;4.57;;
3463;SDS011;3551;41.578;24.706;2022-08-03T05:25:10;9.57;;;4.40;;
3463;SDS011;3551;41.578;24.706;2022-08-03T05:27:37;10.50;;;4.50;;
3463;SDS011;3551;41.578;24.706;2022-08-03T05:30:05;8.90;;;4.10;;
3463;SDS011;3551;41.578;24.706;2022-08-03T05:32:33;11.33;;;4.67;;
3463;SDS011;3551;41.578;24.706;2022-08-03T05:35:00;12.90;;;5.53;;
3463;SDS011;3551;41.578;24.706;2022-08-03T05:37:28;10.33;;;6.30;;
3463;SDS011;3551;41.578;24.706;2022-08-03T05:39:55;13.20;;;6.57;;
3463;SDS011;3551;41.578;24.706;2022-08-03T05:42:23;11.77;;;4.40;;
3463;SDS011;3551;41.578;24.706;2022-08-03T05:44:50;9.73;;;4.27;;
3463;SDS011;3551;41.578;24.706;2022-08-03T05:47:17;5.30;;;4.27;;
3463;SDS011;3551;41.578;24.706;2022-08-03T05:49:44;8.77;;;4.53;;
3463;SDS011;3551;41.578;24.706;2022-08-03T05:52:11;6.60;;;4.23;;
3463;SDS011;3551;41.578;24.706;2022-08-03T05:54:41;11.33;;;4.80;;
3463;SDS011;3551;41.578;24.706;2022-08-03T05:57:08;9.60;;;4.30;;
3463;SDS011;3551;41.578;24.706;2022-08-03T05:59:38;6.60;;;3.90;;
3463;SDS011;3551;41.578;24.706;2022-08-03T06:02:05;15.77;;;4.83;;
3463;SDS011;3551;41.578;24.706;2022-08-03T06:04:32;5.10;;;3.80;;
3463;SDS011;3551;41.578;24.706;2022-08-03T06:06:59;5.60;;;3.20;;
3463;SDS011;3551;41.578;24.706;2022-08-03T06:09:26;8.23;;;3.53;;
3463;SDS011;3551;41.578;24.706;2022-08-03T06:11:54;9.90;;;2.77;;
3463;SDS011;3551;41.578;24.706;2022-08-03T06:14:21;4.53;;;2.70;;
3463;SDS011;3551;41.578;24.706;2022-08-03T06:16:49;4.50;;;3.07;;
3463;SDS011;3551;41.578;24.706;2022-08-03T06:19:16;4.80;;;3.10;;
3463;SDS011;3551;41.578;24.706;2022-08-03T06:21:43;4.10;;;2.77;;
3463;SDS011;3551;41.578;24.706;2022-08-03T06:24:10;14.67;;;3.40;;
3463;SDS011;3551;41.578;24.706;2022-08-03T06:26:37;13.93;;;3.20;;
3463;SDS011;3551;41.578;24.706;2022-08-03T06:29:04;3.20;;;2.50;;
3463;SDS011;3551;41.578;24.706;2022-08-03T06:31:31;4.43;;;2.97;;
3463;SDS011;3551;41.578;24.706;2022-08-03T06:33:59;4.60;;;3.10;;
3463;SDS011;3551;41.578;24.706;2022-08-03T06:36:27;3.80;;;2.90;;
3463;SDS011;3551;41.578;24.706;2022-08-03T06:38:56;5.00;;;3.17;;
3463;SDS011;3551;41.578;24.706;2022-08-03T06:41:27;6.13;;;3.00;;
3463;SDS011;3551;41.578;24.706;2022-08-03T06:43:53;7.73;;;2.90;;
3463;SDS011;3551;41.578;24.706;2022-08-03T06:46:21;9.70;;;3.60;;
3463;SDS011;3551;41.578;24.706;2022-08-03T06:48:49;4.47;;;2.67;;
3463;SDS011;3551;41.578;24.706;2022-08-03T06:51:17;7.63;;;2.50;;
3463;SDS011;3551;41.578;24.706;2022-08-03T06:53:44;3.40;;;2.43;;
3463;SDS011;3551;41.578;24.706;2022-08-03T06:56:11;2.73;;;2.23;;
3463;SDS011;3551;41.578;24.706;2022-08-03T06:58:38;3.50;;;2.30;;
3463;SDS011;3551;41.578;24.706;2022-08-03T07:01:05;3.97;;;2.37;;
3463;SDS011;3551;41.578;24.706;2022-08-03T07:03:32;3.97;;;3.07;;
3463;SDS011;3551;41.578;24.706;2022-08-03T07:05:59;3.67;;;2.93;;
3463;SDS011;3551;41.578;24.706;2022-08-03T07:08:27;4.50;;;2.50;;
3463;SDS011;3551;41.578;24.706;2022-08-03T07:10:55;3.97;;;2.90;;
3463;SDS011;3551;41.578;24.706;2022-08-03T07:13:22;3.10;;;2.60;;
3463;SDS011;3551;41.578;24.706;2022-08-03T07:15:49;3.73;;;2.30;;
3463;SDS011;3551;41.578;24.706;2022-08-03T07:18:16;4.00;;;2.70;;
3463;SDS011;3551;41.578;24.706;2022-08-03T07:20:43;3.27;;;2.50;;
3463;SDS011;3551;41.578;24.706;2022-08-03T07:23:10;4.90;;;2.63;;
3463;SDS011;3551;41.578;24.706;2022-08-03T07:25:38;6.17;;;2.97;;
3463;SDS011;3551;41.578;24.706;2022-08-03T07:28:05;3.03;;;2.53;;
3463;SDS011;3551;41.578;24.706;2022-08-03T07:30:32;5.43;;;2.90;;
3463;SDS011;3551;41.578;24.706;2022-08-03T07:33:00;3.27;;;2.70;;
3463;SDS011;3551;41.578;24.706;2022-08-03T07:35:27;8.20;;;2.90;;
3463;SDS011;3551;41.578;24.706;2022-08-03T07:37:57;6.27;;;2.53;;
3463;SDS011;3551;41.578;24.706;2022-08-03T07:40:24;3.17;;;2.80;;
3463;SDS011;3551;41.578;24.706;2022-08-03T07:42:52;4.23;;;2.60;;
3463;SDS011;3551;41.578;24.706;2022-08-03T07:45:19;4.27;;;2.70;;
3463;SDS011;3551;41.578;24.706;2022-08-03T07:47:47;4.37;;;3.20;;
3463;SDS011;3551;41.578;24.706;2022-08-03T07:50:14;5.27;;;3.17;;
3463;SDS011;3551;41.578;24.706;2022-08-03T07:52:41;5.03;;;3.10;;
3463;SDS011;3551;41.578;24.706;2022-08-03T07:55:14;5.57;;;3.67;;
3463;SDS011;3551;41.578;24.706;2022-08-03T07:57:41;5.60;;;2.90;;
3463;SDS011;3551;41.578;24.706;2022-08-03T08:00:13;4.83;;;3.47;;
3463;SDS011;3551;41.578;24.706;2022-08-03T08:02:43;5.20;;;2.60;;
3463;SDS011;3551;41.578;24.706;2022-08-03T08:05:11;4.97;;;3.83;;
3463;SDS011;3551;41.578;24.706;2022-08-03T08:07:38;6.10;;;2.60;;
3463;SDS011;3551;41.578;24.706;2022-08-03T08:10:06;3.73;;;2.80;;
3463;SDS011;3551;41.578;24.706;2022-08-03T08:12:35;3.80;;;2.83;;
3463;SDS011;3551;41.578;24.706;2022-08-03T08:15:02;2.70;;;2.13;;
3463;SDS011;3551;41.578;24.706;2022-08-03T08:17:35;3.23;;;2.40;;
3463;SDS011;3551;41.578;24.706;2022-08-03T08:20:07;4.90;;;2.80;;
3463;SDS011;3551;41.578;24.706;2022-08-03T08:22:35;3.47;;;2.37;;
3463;SDS011;3551;41.578;24.706;2022-08-03T08:25:02;5.27;;;2.80;;
3463;SDS011;3551;41.578;24.706;2022-08-03T08:27:29;2.63;;;2.37;;
3463;SDS011;3551;41.578;24.706;2022-08-03T08:29:56;4.33;;;2.20;;
3463;SDS011;3551;41.578;24.706;2022-08-03T08:32:23;3.23;;;2.30;;
3463;SDS011;3551;41.578;24.706;2022-08-03T08:34:51;7.57;;;3.37;;
3463;SDS011;3551;41.578;24.706;2022-08-03T08:37:18;4.70;;;2.50;;
3463;SDS011;3551;41.578;24.706;2022-08-03T08:39:45;3.20;;;2.03;;
3463;SDS011;3551;41.578;24.706;2022-08-03T08:42:12;4.80;;;2.53;;
3463;SDS011;3551;41.578;24.706;2022-08-03T08:44:40;4.57;;;2.23;;
3463;SDS011;3551;41.578;24.706;2022-08-03T08:47:07;3.90;;;2.47;;
3463;SDS011;3551;41.578;24.706;2022-08-03T08:49:35;4.77;;;3.07;;
3463;SDS011;3551;41.578;24.706;2022-08-03T08:54:53;3.90;;;3.20;;
3463;SDS011;3551;41.578;24.706;2022-08-03T08:57:24;3.63;;;3.10;;
3463;SDS011;3551;41.578;24.706;2022-08-03T08:59:54;5.93;;;2.87;;
3463;SDS011;3551;41.578;24.706;2022-08-03T09:02:22;4.27;;;2.60;;
3463;SDS011;3551;41.578;24.706;2022-08-03T09:04:49;5.80;;;2.70;;
3463;SDS011;3551;41.578;24.706;2022-08-03T09:07:17;3.73;;;2.63;;
3463;SDS011;3551;41.578;24.706;2022-08-03T09:09:56;6.00;;;2.70;;
3463;SDS011;3551;41.578;24.706;2022-08-03T09:12:23;4.90;;;2.80;;
3463;SDS011;3551;41.578;24.706;2022-08-03T09:14:51;3.07;;;2.20;;
3463;SDS011;3551;41.578;24.706;2022-08-03T09:17:20;5.50;;;4.50;;
3463;SDS011;3551;41.578;24.706;2022-08-03T09:20:02;5.93;;;3.13;;
3463;SDS011;3551;41.578;24.706;2022-08-03T09:22:48;9.40;;;3.73;;
3463;SDS011;3551;41.578;24.706;2022-08-03T09:28:15;2.80;;;2.50;;
3463;SDS011;3551;41.578;24.706;2022-08-03T09:31:01;6.00;;;2.90;;
3463;SDS011;3551;41.578;24.706;2022-08-03T09:33:34;5.30;;;2.70;;
3463;SDS011;3551;41.578;24.706;2022-08-03T09:36:33;5.00;;;3.00;;
3463;SDS011;3551;41.578;24.706;2022-08-03T09:42:05;5.10;;;2.30;;
3463;SDS011;3551;41.578;24.706;2022-08-03T09:44:39;3.87;;;2.80;;
3463;SDS011;3551;41.578;24.706;2022-08-03T09:47:08;6.63;;;3.00;;
3463;SDS011;3551;41.578;24.706;2022-08-03T09:49:36;7.03;;;2.80;;
3463;SDS011;3551;41.578;24.706;2022-08-03T09:52:10;3.30;;;2.70;;
3463;SDS011;3551;41.578;24.706;2022-08-03T09:54:39;5.17;;;3.50;;
3463;SDS011;3551;41.578;24.706;2022-08-03T09:57:06;3.33;;;3.03;;
3463;SDS011;3551;41.578;24.706;2022-08-03T09:59:34;4.43;;;4.00;;
3463;SDS011;3551;41.578;24.706;2022-08-03T10:02:02;4.47;;;3.77;;
3463;SDS011;3551;41.578;24.706;2022-08-03T10:04:29;6.20;;;4.13;;
3463;SDS011;3551;41.578;24.706;2022-08-03T10:07:03;5.00;;;4.30;;
3463;SDS011;3551;41.578;24.706;2022-08-03T10:09:31;7.03;;;4.67;;
3463;SDS011;3551;41.578;24.706;2022-08-03T10:12:05;5.17;;;4.00;;
3463;SDS011;3551;41.578;24.706;2022-08-03T10:14:35;6.20;;;3.93;;
3463;SDS011;3551;41.578;24.706;2022-08-03T10:17:04;8.47;;;4.33;;
3463;SDS011;3551;41.578;24.706;2022-08-03T10:19:31;4.60;;;3.63;;
3463;SDS011;3551;41.578;24.706;2022-08-03T10:22:00;6.30;;;4.80;;
3463;SDS011;3551;41.578;24.706;2022-08-03T10:24:29;3.80;;;3.40;;
3463;SDS011;3551;41.578;24.706;2022-08-03T10:27:00;3.47;;;3.17;;
3463;SDS011;3551;41.578;24.706;2022-08-03T10:29:31;4.73;;;3.47;;
3463;SDS011;3551;41.578;24.706;2022-08-03T10:32:06;4.10;;;3.43;;
3463;SDS011;3551;41.578;24.706;2022-08-03T10:34:39;4.70;;;3.50;;
3463;SDS011;3551;41.578;24.706;2022-08-03T10:37:09;5.63;;;3.13;;
3463;SDS011;3551;41.578;24.706;2022-08-03T10:39:37;5.90;;;3.60;;
3463;SDS011;3551;41.578;24.706;2022-08-03T10:42:18;3.83;;;3.43;;
3463;SDS011;3551;41.578;24.706;2022-08-03T10:44:47;6.40;;;3.53;;
3463;SDS011;3551;41.578;24.706;2022-08-03T10:47:19;7.63;;;3.53;;
3463;SDS011;3551;41.578;24.706;2022-08-03T10:49:47;3.57;;;3.10;;
3463;SDS011;3551;41.578;24.706;2022-08-03T10:52:14;6.53;;;3.50;;
3463;SDS011;3551;41.578;24.706;2022-08-03T10:54:42;3.97;;;3.37;;
3463;SDS011;3551;41.578;24.706;2022-08-03T10:57:41;6.57;;;3.73;;
3463;SDS011;3551;41.578;24.706;2022-08-03T11:00:27;3.40;;;3.10;;
3463;SDS011;3551;41.578;24.706;2022-08-03T11:05:52;5.07;;;4.57;;
3463;SDS011;3551;41.578;24.706;2022-08-03T11:08:41;4.27;;;3.87;;
3463;SDS011;3551;41.578;24.706;2022-08-03T11:11:23;4.60;;;3.97;;
3463;SDS011;3551;41.578;24.706;2022-08-03T11:13:56;5.03;;;3.83;;
3463;SDS011;3551;41.578;24.706;2022-08-03T11:16:26;4.80;;;4.13;;
3463;SDS011;3551;41.578;24.706;2022-08-03T11:18:55;7.80;;;4.53;;
3463;SDS011;3551;41.578;24.706;2022-08-03T11:28:26;5.40;;;4.70;;
3463;SDS011;3551;41.578;24.706;2022-08-03T11:34:02;5.07;;;4.57;;
3463;SDS011;3551;41.578;24.706;2022-08-03T11:45:13;6.83;;;6.03;;
3463;SDS011;3551;41.578;24.706;2022-08-03T11:47:43;8.50;;;6.17;;
3463;SDS011;3551;41.578;24.706;2022-08-03T11:50:11;6.70;;;5.30;;
3463;SDS011;3551;41.578;24.706;2022-08-03T11:52:39;6.60;;;5.80;;
3463;SDS011;3551;41.578;24.706;2022-08-03T11:55:08;6.23;;;5.47;;
3463;SDS011;3551;41.578;24.706;2022-08-03T11:57:36;6.90;;;6.20;;
3463;SDS011;3551;41.578;24.706;2022-08-03T12:02:54;9.37;;;6.73;;
3463;SDS011;3551;41.578;24.706;2022-08-03T12:05:41;8.50;;;5.80;;
3463;SDS011;3551;41.578;24.706;2022-08-03T12:08:10;8.43;;;6.70;;
3463;SDS011;3551;41.578;24.706;2022-08-03T12:10:38;6.57;;;5.90;;
3463;SDS011;3551;41.578;24.706;2022-08-03T12:13:10;8.43;;;6.27;;
3463;SDS011;3551;41.578;24.706;2022-08-03T12:15:39;10.03;;;6.33;;
3463;SDS011;3551;41.578;24.706;2022-08-03T12:18:14;9.03;;;6.57;;
3463;SDS011;3551;41.578;24.706;2022-08-03T12:20:44;9.43;;;6.73;;
3463;SDS011;3551;41.578;24.706;2022-08-03T12:23:12;8.63;;;6.50;;
3463;SDS011;3551;41.578;24.706;2022-08-03T12:25:40;7.20;;;6.50;;
3463;SDS011;3551;41.578;24.706;2022-08-03T12:28:10;9.50;;;6.43;;
3463;SDS011;3551;41.578;24.706;2022-08-03T12:30:43;14.10;;;7.20;;
3463;SDS011;3551;41.578;24.706;2022-08-03T12:33:15;10.87;;;7.20;;
3463;SDS011;3551;41.578;24.706;2022-08-03T12:35:45;10.03;;;9.00;;
3463;SDS011;3551;41.578;24.706;2022-08-03T12:38:20;7.60;;;6.80;;
3463;SDS011;3551;41.578;24.706;2022-08-03T12:41:01;9.37;;;6.47;;
3463;SDS011;3551;41.578;24.706;2022-08-03T12:43:30;18.80;;;16.27;;
3463;SDS011;3551;41.578;24.706;2022-08-03T12:46:09;10.83;;;7.13;;
3463;SDS011;3551;41.578;24.706;2022-08-03T12:51:25;8.87;;;7.10;;
3463;SDS011;3551;41.578;24.706;2022-08-03T12:53:53;14.83;;;6.37;;
3463;SDS011;3551;41.578;24.706;2022-08-03T12:56:21;9.70;;;7.13;;
3463;SDS011;3551;41.578;24.706;2022-08-03T12:58:48;6.80;;;6.00;;
3463;SDS011;3551;41.578;24.706;2022-08-03T13:01:19;6.53;;;5.93;;
3463;SDS011;3551;41.578;24.706;2022-08-03T13:03:49;10.33;;;6.60;;
3463;SDS011;3551;41.578;24.706;2022-08-03T13:06:18;8.23;;;6.50;;
3463;SDS011;3551;41.578;24.706;2022-08-03T13:08:47;8.73;;;6.80;;
3463;SDS011;3551;41.578;24.706;2022-08-03T13:11:22;7.83;;;6.33;;
3463;SDS011;3551;41.578;24.706;2022-08-03T13:13:50;9.60;;;7.00;;
3463;SDS011;3551;41.578;24.706;2022-08-03T13:16:20;7.03;;;5.57;;
3463;SDS011;3551;41.578;24.706;2022-08-03T13:18:48;6.83;;;6.23;;
3463;SDS011;3551;41.578;24.706;2022-08-03T13:21:16;7.47;;;5.90;;
3463;SDS011;3551;41.578;24.706;2022-08-03T13:23:44;5.47;;;4.97;;
3463;SDS011;3551;41.578;24.706;2022-08-03T13:26:12;6.40;;;5.80;;
3463;SDS011;3551;41.578;24.706;2022-08-03T13:28:39;6.80;;;5.60;;
3463;SDS011;3551;41.578;24.706;2022-08-03T13:31:05;7.27;;;5.97;;
3463;SDS011;3551;41.578;24.706;2022-08-03T13:33:34;6.53;;;5.83;;
3463;SDS011;3551;41.578;24.706;2022-08-03T13:36:01;10.33;;;5.60;;
3463;SDS011;3551;41.578;24.706;2022-08-03T13:38:28;5.80;;;4.97;;
3463;SDS011;3551;41.578;24.706;2022-08-03T13:40:55;5.37;;;4.80;;
3463;SDS011;3551;41.578;24.706;2022-08-03T13:43:22;6.00;;;5.40;;
3463;SDS011;3551;41.578;24.706;2022-08-03T13:45:49;7.90;;;5.30;;
3463;SDS011;3551;41.578;24.706;2022-08-03T13:48:16;6.57;;;4.93;;
3463;SDS011;3551;41.578;24.706;2022-08-03T13:50:45;9.17;;;4.77;;
3463;SDS011;3551;41.578;24.706;2022-08-03T13:53:12;6.17;;;5.10;;
3463;SDS011;3551;41.578;24.706;2022-08-03T13:55:39;36.93;;;11.90;;
3463;SDS011;3551;41.578;24.706;2022-08-03T13:58:06;31.87;;;6.23;;
3463;SDS011;3551;41.578;24.706;2022-08-03T14:00:36;7.77;;;5.03;;
3463;SDS011;3551;41.578;24.706;2022-08-03T14:03:04;5.10;;;4.60;;
3463;SDS011;3551;41.578;24.706;2022-08-03T14:05:33;8.40;;;5.50;;
3463;SDS011;3551;41.578;24.706;2022-08-03T14:08:04;6.57;;;3.90;;
3463;SDS011;3551;41.578;24.706;2022-08-03T14:10:32;4.10;;;3.70;;
3463;SDS011;3551;41.578;24.706;2022-08-03T14:13:01;13.63;;;4.37;;
3463;SDS011;3551;41.578;24.706;2022-08-03T14:15:30;20.23;;;4.67;;
3463;SDS011;3551;41.578;24.706;2022-08-03T14:17:57;5.10;;;3.67;;
3463;SDS011;3551;41.578;24.706;2022-08-03T14:20:24;4.80;;;4.33;;
3463;SDS011;3551;41.578;24.706;2022-08-03T14:22:52;3.30;;;3.00;;
3463;SDS011;3551;41.578;24.706;2022-08-03T14:25:24;4.13;;;3.47;;
3463;SDS011;3551;41.578;24.706;2022-08-03T14:27:51;3.63;;;2.97;;
3463;SDS011;3551;41.578;24.706;2022-08-03T14:30:18;4.70;;;3.40;;
3463;SDS011;3551;41.578;24.706;2022-08-03T14:32:47;3.53;;;3.23;;
3463;SDS011;3551;41.578;24.706;2022-08-03T14:35:14;3.23;;;2.93;;
3463;SDS011;3551;41.578;24.706;2022-08-03T14:37:43;3.80;;;3.40;;
3463;SDS011;3551;41.578;24.706;2022-08-03T14:40:10;4.40;;;3.30;;
3463;SDS011;3551;41.578;24.706;2022-08-03T14:42:40;4.20;;;3.80;;
3463;SDS011;3551;41.578;24.706;2022-08-03T14:45:07;4.53;;;3.30;;
3463;SDS011;3551;41.578;24.706;2022-08-03T14:47:35;5.17;;;4.10;;
3463;SDS011;3551;41.578;24.706;2022-08-03T14:50:02;3.77;;;3.37;;
3463;SDS011;3551;41.578;24.706;2022-08-03T14:52:30;6.43;;;3.57;;
3463;SDS011;3551;41.578;24.706;2022-08-03T14:54:57;7.13;;;3.70;;
3463;SDS011;3551;41.578;24.706;2022-08-03T14:57:24;5.10;;;3.10;;
3463;SDS011;3551;41.578;24.706;2022-08-03T14:59:53;6.23;;;3.67;;
3463;SDS011;3551;41.578;24.706;2022-08-03T15:02:20;4.13;;;3.50;;
3463;SDS011;3551;41.578;24.706;2022-08-03T15:04:47;8.03;;;3.50;;
3463;SDS011;3551;41.578;24.706;2022-08-03T15:07:16;4.77;;;3.80;;
3463;SDS011;3551;41.578;24.706;2022-08-03T15:09:43;4.60;;;3.47;;
3463;SDS011;3551;41.578;24.706;2022-08-03T15:12:10;4.13;;;3.13;;
3463;SDS011;3551;41.578;24.706;2022-08-03T15:14:37;3.73;;;3.37;;
3463;SDS011;3551;41.578;24.706;2022-08-03T15:17:07;3.20;;;2.90;;
3463;SDS011;3551;41.578;24.706;2022-08-03T15:19:35;5.70;;;3.53;;
3463;SDS011;3551;41.578;24.706;2022-08-03T15:22:02;3.80;;;3.23;;
3463;SDS011;3551;41.578;24.706;2022-08-03T15:24:29;5.60;;;3.53;;
3463;SDS011;3551;41.578;24.706;2022-08-03T15:26:56;4.10;;;3.50;;
3463;SDS011;3551;41.578;24.706;2022-08-03T15:29:23;4.23;;;3.67;;
3463;SDS011;3551;41.578;24.706;2022-08-03T15:31:50;6.03;;;3.57;;
3463;SDS011;3551;41.578;24.706;2022-08-03T15:34:18;4.40;;;3.40;;
3463;SDS011;3551;41.578;24.706;2022-08-03T15:36:45;3.73;;;3.23;;
3463;SDS011;3551;41.578;24.706;2022-08-03T15:39:12;5.33;;;3.43;;
3463;SDS011;3551;41.578;24.706;2022-08-03T15:41:39;4.30;;;3.87;;
3463;SDS011;3551;41.578;24.706;2022-08-03T15:44:06;8.10;;;2.93;;
3463;SDS011;3551;41.578;24.706;2022-08-03T15:46:33;6.40;;;3.77;;
3463;SDS011;3551;41.578;24.706;2022-08-03T15:49:01;5.37;;;3.63;;